createdAt,value
2023-03-18T00:00:43.764Z,8.10
2023-03-18T00:03:13.281Z,8.90
2023-03-18T00:05:42.370Z,8.20
2023-03-18T00:08:10.852Z,8.70
2023-03-18T00:10:39.842Z,8.40
2023-03-18T00:13:08.003Z,8.40
2023-03-18T00:15:42.833Z,9.00
2023-03-18T00:18:11.378Z,7.60
2023-03-18T00:20:39.713Z,8.30
2023-03-18T00:23:10.379Z,9.00
2023-03-18T00:25:39.143Z,9.20
2023-03-18T00:28:07.551Z,8.40
2023-03-18T00:30:38.221Z,7.80
2023-03-18T00:33:07.504Z,8.50
2023-03-18T00:35:37.809Z,8.50
2023-03-18T00:38:16.093Z,10.40
2023-03-18T00:40:53.756Z,11.70
2023-03-18T00:43:23.380Z,12.10
2023-03-18T00:45:51.682Z,9.80
2023-03-18T00:48:24.313Z,11.90
2023-03-18T00:50:53.046Z,10.60
2023-03-18T00:53:23.889Z,9.90
2023-03-18T00:55:52.802Z,10.20
2023-03-18T00:58:20.863Z,9.00
2023-03-18T01:00:49.343Z,9.60
2023-03-18T01:03:19.044Z,9.90
2023-03-18T01:05:47.730Z,9.60
2023-03-18T01:08:15.872Z,8.70
2023-03-18T01:10:44.185Z,8.40
2023-03-18T01:13:12.788Z,8.10
2023-03-18T01:15:42.069Z,7.40
2023-03-18T01:18:11.487Z,6.60
2023-03-18T01:20:39.855Z,7.50
2023-03-18T01:23:09.059Z,7.90
2023-03-18T01:25:38.881Z,8.10
2023-03-18T01:28:07.205Z,8.70
2023-03-18T01:30:38.506Z,7.70
2023-03-18T01:33:08.421Z,6.90
2023-03-18T01:35:39.784Z,8.50
2023-03-18T01:38:08.723Z,7.60
2023-03-18T01:40:40.349Z,7.50
2023-03-18T01:43:10.752Z,7.50
2023-03-18T01:45:40.519Z,7.50
2023-03-18T01:48:14.070Z,7.90
2023-03-18T01:50:43.579Z,7.00
2023-03-18T01:53:14.258Z,6.40
2023-03-18T01:55:42.699Z,6.40
2023-03-18T01:58:17.415Z,5.90
2023-03-18T02:00:50.065Z,7.40
2023-03-18T02:03:20.318Z,7.60
2023-03-18T02:05:50.131Z,6.80
2023-03-18T02:08:19.071Z,8.40
2023-03-18T02:10:49.389Z,11.20
2023-03-18T02:13:18.848Z,12.10
2023-03-18T02:15:53.371Z,10.40
2023-03-18T02:18:28.643Z,9.40
2023-03-18T02:21:20.796Z,9.20
2023-03-18T02:26:33.286Z,8.80
2023-03-18T02:29:11.520Z,9.70
2023-03-18T02:31:46.961Z,9.40
2023-03-18T02:34:15.642Z,10.00
2023-03-18T02:36:44.140Z,9.20
2023-03-18T02:39:14.200Z,8.10
2023-03-18T02:41:43.529Z,9.00
2023-03-18T02:44:12.368Z,9.40
2023-03-18T02:46:52.290Z,9.30
2023-03-18T02:49:21.883Z,8.30
2023-03-18T02:51:50.651Z,9.10
2023-03-18T02:54:24.225Z,9.20
2023-03-18T02:56:52.861Z,9.30
2023-03-18T02:59:22.167Z,8.60
2023-03-18T03:01:53.623Z,9.60
2023-03-18T03:04:23.788Z,7.90
2023-03-18T03:06:53.110Z,8.50
2023-03-18T03:09:31.309Z,7.80
2023-03-18T03:11:59.833Z,8.10
2023-03-18T03:14:29.339Z,6.50
2023-03-18T03:17:00.231Z,7.10
2023-03-18T03:19:31.864Z,7.30
2023-03-18T03:22:00.949Z,7.10
2023-03-18T03:24:30.506Z,7.10
2023-03-18T03:27:00.765Z,7.20
2023-03-18T03:29:29.543Z,7.10
2023-03-18T03:31:57.781Z,6.90
2023-03-18T03:34:26.017Z,7.10
2023-03-18T03:36:54.305Z,6.90
2023-03-18T03:39:23.230Z,7.20
2023-03-18T03:41:53.092Z,6.40
2023-03-18T03:44:24.656Z,7.60
2023-03-18T03:46:53.278Z,7.00
2023-03-18T03:49:23.263Z,7.70
2023-03-18T03:51:51.549Z,7.50
2023-03-18T03:54:20.641Z,6.90
2023-03-18T03:56:50.649Z,7.20
2023-03-18T03:59:19.540Z,6.50
2023-03-18T04:04:32.979Z,6.40
2023-03-18T04:07:01.474Z,6.90
2023-03-18T04:09:30.645Z,7.00
2023-03-18T04:11:58.974Z,7.30
2023-03-18T04:14:27.274Z,6.30
2023-03-18T04:16:59.653Z,7.60
2023-03-18T04:19:30.641Z,6.30
2023-03-18T04:21:58.920Z,6.60
2023-03-18T04:24:27.631Z,6.00
2023-03-18T04:26:55.988Z,6.50
2023-03-18T04:29:24.569Z,6.10
2023-03-18T04:31:53.450Z,5.80
2023-03-18T04:34:22.883Z,5.30
2023-03-18T04:36:51.566Z,6.90
2023-03-18T04:39:20.663Z,6.90
2023-03-18T04:41:50.959Z,6.70
2023-03-18T04:44:19.487Z,6.30
2023-03-18T04:46:53.760Z,6.40
2023-03-18T04:49:22.565Z,6.40
2023-03-18T04:51:50.964Z,6.00
2023-03-18T04:54:28.485Z,6.10
2023-03-18T04:56:58.563Z,5.90
2023-03-18T04:59:28.575Z,5.70
2023-03-18T05:01:57.080Z,6.50
2023-03-18T05:04:26.219Z,7.30
2023-03-18T05:06:55.812Z,6.80
2023-03-18T05:09:28.968Z,6.20
2023-03-18T05:12:01.450Z,6.70
2023-03-18T05:14:35.460Z,7.30
2023-03-18T05:17:04.771Z,6.70
2023-03-18T05:22:17.785Z,6.40
2023-03-18T05:24:46.692Z,7.00
2023-03-18T05:27:17.381Z,7.20
2023-03-18T05:29:48.518Z,8.10
2023-03-18T05:32:27.342Z,9.60
2023-03-18T05:35:01.105Z,9.60
2023-03-18T05:37:30.088Z,10.40
2023-03-18T05:40:11.852Z,14.40
2023-03-18T05:42:55.047Z,6.10
2023-03-18T05:45:27.831Z,6.70
2023-03-18T05:47:57.514Z,9.00
2023-03-18T05:50:35.732Z,8.00
2023-03-18T05:53:06.460Z,8.40
2023-03-18T05:55:36.391Z,8.90
2023-03-18T05:58:05.164Z,7.10
2023-03-18T06:00:35.692Z,9.80
2023-03-18T06:03:05.033Z,6.30
2023-03-18T06:05:34.482Z,8.80
2023-03-18T06:08:03.298Z,7.50
2023-03-18T06:10:32.491Z,9.30
2023-03-18T06:13:02.205Z,6.50
2023-03-18T06:15:32.575Z,12.70
2023-03-18T06:18:05.116Z,7.50
2023-03-18T06:20:34.834Z,14.30
2023-03-18T06:23:10.215Z,7.60
2023-03-18T06:25:38.647Z,8.20
2023-03-18T06:28:07.657Z,9.50
2023-03-18T06:30:37.363Z,11.50
2023-03-18T06:33:06.731Z,10.50
2023-03-18T06:35:38.432Z,9.90
2023-03-18T06:38:09.155Z,7.10
2023-03-18T06:40:37.950Z,6.70
2023-03-18T06:43:07.017Z,5.90
2023-03-18T06:45:38.468Z,4.90
2023-03-18T06:48:09.845Z,6.40
2023-03-18T06:50:42.381Z,5.50
2023-03-18T06:53:19.193Z,5.60
2023-03-18T06:55:49.727Z,5.40
2023-03-18T06:58:18.683Z,6.70
2023-03-18T07:01:00.654Z,7.50
2023-03-18T07:03:33.057Z,7.20
2023-03-18T07:06:02.812Z,11.50
2023-03-18T07:08:33.921Z,9.70
2023-03-18T07:11:03.894Z,7.90
2023-03-18T07:13:34.925Z,8.70
2023-03-18T07:16:05.821Z,12.40
2023-03-18T07:18:34.745Z,6.50
2023-03-18T07:21:11.567Z,11.40
2023-03-18T07:23:41.232Z,6.70
2023-03-18T07:26:10.229Z,6.40
2023-03-18T07:28:39.695Z,6.50
2023-03-18T07:31:08.010Z,8.80
2023-03-18T07:33:42.270Z,6.50
2023-03-18T07:36:10.912Z,7.70
2023-03-18T07:38:40.171Z,7.20
2023-03-18T07:41:08.735Z,7.50
2023-03-18T07:43:37.791Z,6.80
2023-03-18T07:46:06.951Z,6.60
2023-03-18T07:48:35.486Z,6.60
2023-03-18T07:51:03.952Z,7.70
2023-03-18T07:53:33.810Z,6.90
2023-03-18T07:56:03.551Z,6.80
2023-03-18T07:58:38.848Z,6.50
2023-03-18T08:01:07.780Z,8.00
2023-03-18T08:03:36.387Z,7.30
2023-03-18T08:06:06.066Z,6.20
2023-03-18T08:08:35.010Z,6.70
2023-03-18T08:11:06.604Z,6.80
2023-03-18T08:13:38.594Z,5.50
2023-03-18T08:16:07.264Z,6.20
2023-03-18T08:18:37.993Z,6.00
2023-03-18T08:21:07.987Z,5.80
2023-03-18T08:23:37.424Z,6.50
2023-03-18T08:26:07.899Z,6.80
2023-03-18T08:28:36.704Z,6.00
2023-03-18T08:31:10.384Z,5.70
2023-03-18T08:33:40.007Z,5.90
2023-03-18T08:36:08.800Z,5.30
2023-03-18T08:38:40.541Z,5.90
2023-03-18T08:41:10.476Z,5.20
2023-03-18T08:43:39.461Z,5.50
2023-03-18T08:46:09.122Z,4.90
2023-03-18T08:48:37.356Z,5.20
2023-03-18T08:51:08.420Z,5.20
2023-03-18T08:53:40.590Z,5.20
2023-03-18T08:56:15.133Z,6.80
2023-03-18T08:58:46.043Z,6.20
2023-03-18T09:01:15.187Z,5.10
2023-03-18T09:03:45.024Z,4.20
2023-03-18T09:06:13.581Z,4.40
2023-03-18T09:08:41.879Z,4.40
2023-03-18T09:11:10.852Z,5.30
2023-03-18T09:13:39.306Z,5.00
2023-03-18T09:16:15.008Z,4.40
2023-03-18T09:18:45.250Z,5.10
2023-03-18T09:21:15.361Z,5.20
2023-03-18T09:23:43.951Z,4.40
2023-03-18T09:26:12.324Z,5.20
2023-03-18T09:28:43.645Z,6.10
2023-03-18T09:31:13.807Z,5.00
2023-03-18T09:33:43.531Z,4.20
2023-03-18T09:36:12.744Z,4.50
2023-03-18T09:38:42.852Z,4.70
2023-03-18T09:44:21.702Z,4.20
2023-03-18T09:47:20.898Z,5.50
2023-03-18T09:49:54.006Z,6.10
2023-03-18T09:52:22.576Z,7.60
2023-03-18T09:55:22.626Z,4.90
2023-03-18T09:57:51.917Z,6.00
2023-03-18T10:00:37.019Z,4.60
2023-03-18T10:03:24.343Z,6.30
2023-03-18T10:05:56.829Z,4.80
2023-03-18T10:08:35.915Z,5.40
2023-03-18T10:11:07.060Z,8.90
2023-03-18T10:13:47.879Z,5.00
2023-03-18T10:16:29.306Z,4.90
2023-03-18T10:18:57.539Z,5.20
2023-03-18T10:22:00.162Z,5.70
2023-03-18T10:24:46.914Z,3.90
2023-03-18T10:27:19.346Z,3.80
2023-03-18T10:29:53.261Z,3.20
2023-03-18T10:33:13.380Z,4.50
2023-03-18T10:35:51.560Z,4.30
2023-03-18T10:38:28.279Z,4.20
2023-03-18T10:40:56.507Z,4.10
2023-03-18T10:43:26.396Z,4.10
2023-03-18T10:46:06.113Z,4.00
2023-03-18T10:48:38.813Z,4.50
2023-03-18T10:51:24.965Z,3.90
2023-03-18T10:54:05.939Z,4.60
2023-03-18T10:56:36.064Z,4.20
2023-03-18T10:59:16.317Z,4.40
2023-03-18T11:01:47.082Z,4.10
2023-03-18T11:04:19.136Z,6.00
2023-03-18T11:06:58.358Z,4.10
2023-03-18T11:09:36.420Z,4.20
2023-03-18T11:12:06.957Z,4.00
2023-03-18T11:14:37.541Z,4.40
2023-03-18T11:17:19.011Z,3.70
2023-03-18T11:19:49.149Z,4.20
2023-03-18T11:22:24.293Z,6.30
2023-03-18T11:25:13.996Z,4.10
2023-03-18T11:27:51.367Z,3.40
2023-03-18T11:30:34.120Z,4.10
2023-03-18T11:33:04.206Z,3.60
2023-03-18T11:35:57.920Z,3.70
2023-03-18T11:38:34.746Z,4.70
2023-03-18T11:41:30.456Z,3.90
2023-03-18T11:44:03.788Z,3.20
2023-03-18T11:46:36.613Z,3.20
2023-03-18T11:52:04.987Z,4.00
2023-03-18T11:54:56.366Z,3.50
2023-03-18T11:57:30.484Z,3.20
2023-03-18T12:00:17.692Z,3.20
2023-03-18T12:02:46.518Z,2.80
2023-03-18T12:05:29.242Z,3.10
2023-03-18T12:08:03.847Z,2.90
2023-03-18T12:10:50.764Z,3.30
2023-03-18T12:13:31.702Z,3.00
2023-03-18T12:16:33.831Z,3.00
2023-03-18T12:19:19.509Z,4.00
2023-03-18T12:21:54.078Z,5.00
2023-03-18T12:24:54.848Z,3.30
2023-03-18T12:27:48.731Z,3.00
2023-03-18T12:30:32.699Z,3.00
2023-03-18T12:33:06.734Z,3.00
2023-03-18T12:35:42.675Z,3.30
2023-03-18T12:38:24.441Z,2.90
2023-03-18T12:41:07.416Z,3.30
2023-03-18T12:43:37.994Z,2.90
2023-03-18T12:46:56.654Z,3.60
2023-03-18T12:49:34.121Z,3.10
2023-03-18T12:52:03.455Z,3.60
2023-03-18T12:54:34.394Z,3.10
2023-03-18T12:57:08.338Z,3.60
2023-03-18T12:59:43.374Z,4.10
2023-03-18T13:03:07.698Z,3.90
2023-03-18T13:05:52.633Z,3.80
2023-03-18T13:08:41.881Z,3.70
2023-03-18T13:11:32.768Z,3.70
2023-03-18T13:14:07.629Z,5.10
2023-03-18T13:16:37.849Z,4.90
2023-03-18T13:19:06.855Z,4.30
2023-03-18T13:21:43.234Z,3.70
2023-03-18T13:24:11.670Z,4.50
2023-03-18T13:26:48.990Z,4.80
2023-03-18T13:29:52.873Z,3.70
2023-03-18T13:32:50.061Z,4.40
2023-03-18T13:35:46.187Z,5.90
2023-03-18T13:38:36.352Z,6.00
2023-03-18T13:41:17.749Z,7.10
2023-03-18T13:43:49.435Z,4.40
2023-03-18T13:46:31.388Z,5.40
2023-03-18T13:49:16.700Z,7.90
2023-03-18T13:51:53.693Z,5.80
2023-03-18T13:54:22.020Z,5.90
2023-03-18T13:56:58.527Z,4.50
2023-03-18T13:59:33.366Z,4.10
2023-03-18T14:02:31.418Z,4.80
2023-03-18T14:05:00.171Z,4.00
2023-03-18T14:07:29.736Z,4.90
2023-03-18T14:10:17.340Z,5.00
2023-03-18T14:12:51.246Z,5.10
2023-03-18T14:15:39.578Z,4.90
2023-03-18T14:18:27.606Z,4.40
2023-03-18T14:21:00.397Z,4.20
2023-03-18T14:23:37.607Z,4.40
2023-03-18T14:26:27.211Z,4.20
2023-03-18T14:29:04.883Z,5.70
2023-03-18T14:31:40.709Z,5.40
2023-03-18T14:34:18.245Z,6.80
2023-03-18T14:37:04.837Z,6.20
2023-03-18T14:39:48.182Z,8.10
2023-03-18T14:42:23.876Z,6.10
2023-03-18T14:44:59.403Z,4.80
2023-03-18T14:47:39.513Z,5.40
2023-03-18T14:50:40.705Z,5.30
2023-03-18T14:53:35.628Z,5.40
2023-03-18T14:56:05.202Z,5.20
2023-03-18T14:58:35.947Z,5.70
2023-03-18T15:01:05.762Z,6.60
2023-03-18T15:03:34.614Z,5.50
2023-03-18T15:06:04.318Z,6.00
2023-03-18T15:08:47.442Z,6.60
2023-03-18T15:11:16.837Z,6.00
2023-03-18T15:13:47.298Z,5.60
2023-03-18T15:16:18.987Z,5.20
2023-03-18T15:18:52.905Z,6.10
2023-03-18T15:21:26.143Z,5.80
2023-03-18T15:24:03.817Z,6.40
2023-03-18T15:26:38.786Z,5.80
2023-03-18T15:29:28.742Z,6.20
2023-03-18T15:32:30.707Z,6.50
2023-03-18T15:35:11.414Z,6.00
2023-03-18T15:37:42.621Z,6.30
2023-03-18T15:40:29.509Z,5.70
2023-03-18T15:43:25.081Z,6.60
2023-03-18T15:46:05.124Z,6.10
2023-03-18T15:48:39.797Z,6.80
2023-03-18T15:53:59.373Z,6.00
2023-03-18T15:56:32.564Z,5.60
2023-03-18T15:59:13.237Z,6.70
2023-03-18T16:01:41.725Z,8.00
2023-03-18T16:04:14.908Z,8.00
2023-03-18T16:06:44.630Z,10.10
2023-03-18T16:09:17.668Z,10.50
2023-03-18T16:11:58.608Z,9.90
2023-03-18T16:14:37.657Z,11.90
2023-03-18T16:17:06.096Z,14.70
2023-03-18T16:19:39.592Z,14.40
2023-03-18T16:22:08.756Z,13.40
2023-03-18T16:24:37.813Z,23.40
2023-03-18T16:27:07.297Z,28.40
2023-03-18T16:29:38.332Z,33.00
2023-03-18T16:32:08.371Z,33.30
2023-03-18T16:34:36.840Z,26.70
2023-03-18T16:37:05.447Z,21.70
2023-03-18T16:39:36.981Z,28.00
2023-03-18T16:42:08.785Z,25.00
2023-03-18T16:44:37.045Z,25.60
2023-03-18T16:47:06.172Z,22.40
2023-03-18T16:49:37.478Z,21.50
2023-03-18T16:52:06.869Z,24.30
2023-03-18T16:54:35.139Z,26.40
2023-03-18T16:57:07.062Z,25.60
2023-03-18T16:59:36.665Z,27.00
2023-03-18T17:02:06.224Z,25.30
2023-03-18T17:04:35.004Z,29.40
2023-03-18T17:07:04.840Z,28.30
2023-03-18T17:09:35.036Z,25.10
2023-03-18T17:12:07.576Z,29.10
2023-03-18T17:14:38.803Z,28.20
2023-03-18T17:17:09.012Z,24.10
2023-03-18T17:19:37.276Z,22.70
2023-03-18T17:22:22.859Z,20.70
2023-03-18T17:24:51.761Z,19.20
2023-03-18T17:27:29.717Z,16.90
2023-03-18T17:29:57.898Z,15.90
2023-03-18T17:32:27.491Z,16.70
2023-03-18T17:34:58.208Z,16.00
2023-03-18T17:37:26.999Z,15.80
2023-03-18T17:39:57.292Z,16.60
2023-03-18T17:42:30.482Z,17.00
2023-03-18T17:45:06.045Z,19.60
2023-03-18T17:47:34.458Z,17.10
2023-03-18T17:50:05.036Z,16.00
2023-03-18T17:52:34.137Z,16.80
2023-03-18T17:55:02.436Z,16.10
2023-03-18T17:57:32.977Z,17.80
2023-03-18T18:00:01.152Z,17.40
2023-03-18T18:02:29.951Z,17.20
2023-03-18T18:07:32.510Z,16.30
2023-03-18T18:10:01.400Z,16.40
2023-03-18T18:12:31.531Z,17.00
2023-03-18T18:15:00.147Z,17.50
2023-03-18T18:17:28.590Z,18.50
2023-03-18T18:19:57.796Z,21.90
2023-03-18T18:22:26.794Z,24.80
2023-03-18T18:25:00.691Z,23.50
2023-03-18T18:27:28.993Z,26.50
2023-03-18T18:29:57.762Z,31.70
2023-03-18T18:32:26.946Z,48.80
2023-03-18T18:34:56.069Z,52.70
2023-03-18T18:37:25.260Z,58.60
2023-03-18T18:39:53.566Z,54.70
2023-03-18T18:42:22.016Z,51.80
2023-03-18T18:44:52.865Z,56.00
2023-03-18T18:47:22.198Z,50.40
2023-03-18T18:49:51.262Z,54.10
2023-03-18T18:52:19.947Z,56.50
2023-03-18T18:54:48.464Z,69.60
2023-03-18T18:57:26.845Z,60.10
2023-03-18T18:59:55.819Z,66.10
2023-03-18T19:02:35.325Z,43.20
2023-03-18T19:05:04.982Z,37.80
2023-03-18T19:07:34.000Z,50.10
2023-03-18T19:10:02.563Z,49.50
2023-03-18T19:12:31.060Z,52.00
2023-03-18T19:15:00.044Z,52.50
2023-03-18T19:17:29.271Z,53.00
2023-03-18T19:19:58.734Z,48.50
2023-03-18T19:22:28.661Z,57.90
2023-03-18T19:24:57.366Z,46.20
2023-03-18T19:27:27.973Z,39.60
2023-03-18T19:29:58.133Z,37.20
2023-03-18T19:32:27.122Z,38.20
2023-03-18T19:34:59.484Z,34.80
2023-03-18T19:37:29.513Z,33.20
2023-03-18T19:39:58.176Z,34.80
2023-03-18T19:42:27.077Z,36.00
2023-03-18T19:44:56.792Z,31.90
2023-03-18T19:47:28.732Z,30.30
2023-03-18T19:49:57.636Z,26.60
2023-03-18T19:52:27.395Z,28.50
2023-03-18T19:54:56.373Z,29.20
2023-03-18T19:57:29.574Z,23.70
2023-03-18T20:00:01.500Z,22.20
2023-03-18T20:02:33.178Z,19.80
2023-03-18T20:05:03.820Z,19.40
2023-03-18T20:07:33.100Z,19.80
2023-03-18T20:10:02.024Z,19.50
2023-03-18T20:12:42.818Z,18.20
2023-03-18T20:15:20.289Z,17.00
2023-03-18T20:17:49.551Z,20.20
2023-03-18T20:20:25.931Z,23.60
2023-03-18T20:22:57.016Z,27.80
2023-03-18T20:25:32.606Z,27.30
2023-03-18T20:28:04.849Z,31.00
2023-03-18T20:30:35.962Z,33.50
2023-03-18T20:33:17.518Z,39.20
2023-03-18T20:35:47.137Z,40.50
2023-03-18T20:38:20.217Z,49.00
2023-03-18T20:40:51.180Z,41.90
2023-03-18T20:43:22.483Z,39.10
2023-03-18T20:45:53.193Z,38.50
2023-03-18T20:48:22.547Z,40.50
2023-03-18T20:50:52.154Z,42.90
2023-03-18T20:53:25.346Z,43.60
2023-03-18T20:55:53.971Z,48.60
2023-03-18T20:58:26.460Z,50.00
2023-03-18T21:00:55.515Z,51.50
2023-03-18T21:03:29.601Z,48.50
2023-03-18T21:05:59.334Z,48.50
2023-03-18T21:08:28.474Z,45.90
2023-03-18T21:11:04.105Z,45.10
2023-03-18T21:13:36.423Z,41.50
2023-03-18T21:16:11.055Z,43.90
2023-03-18T21:18:45.590Z,42.30
2023-03-18T21:21:25.143Z,39.30
2023-03-18T21:23:54.002Z,40.20
2023-03-18T21:26:23.362Z,38.80
2023-03-18T21:28:52.773Z,43.30
2023-03-18T21:31:24.133Z,48.80
2023-03-18T21:33:53.705Z,59.40
2023-03-18T21:36:22.621Z,84.40
2023-03-18T21:38:50.768Z,102.00
2023-03-18T21:41:20.441Z,91.00
2023-03-18T21:43:53.467Z,86.10
2023-03-18T21:46:24.724Z,70.40
2023-03-18T21:48:53.192Z,63.10
2023-03-18T21:51:39.607Z,66.40
2023-03-18T21:54:18.468Z,62.50
2023-03-18T21:56:48.074Z,73.00
2023-03-18T21:59:16.834Z,58.60
2023-03-18T22:01:46.886Z,39.10
2023-03-18T22:04:15.372Z,34.40
2023-03-18T22:06:43.835Z,33.30
2023-03-18T22:09:14.779Z,32.10
2023-03-18T22:11:43.845Z,31.90
2023-03-18T22:14:13.761Z,28.40
2023-03-18T22:16:42.759Z,30.20
2023-03-18T22:19:11.349Z,30.70
2023-03-18T22:21:40.818Z,29.50
2023-03-18T22:24:13.947Z,27.70
2023-03-18T22:26:42.073Z,29.70
2023-03-18T22:29:12.852Z,32.60
2023-03-18T22:31:43.914Z,36.80
2023-03-18T22:34:22.799Z,36.10
2023-03-18T22:36:51.916Z,39.30
2023-03-18T22:39:20.242Z,44.80
2023-03-18T22:41:53.897Z,52.10
2023-03-18T22:44:22.961Z,63.40
2023-03-18T22:46:51.543Z,60.40
2023-03-18T22:49:20.163Z,74.60
2023-03-18T22:51:49.183Z,74.10
2023-03-18T22:54:18.626Z,75.80
2023-03-18T22:56:47.362Z,79.60
2023-03-18T22:59:15.734Z,65.70
2023-03-18T23:01:44.942Z,65.20
2023-03-18T23:04:13.504Z,63.70
2023-03-18T23:06:44.400Z,63.60
2023-03-18T23:09:13.448Z,61.60
2023-03-18T23:11:42.136Z,55.70
2023-03-18T23:14:11.236Z,56.90
2023-03-18T23:16:41.132Z,55.90
2023-03-18T23:19:09.748Z,50.20
2023-03-18T23:21:38.009Z,54.20
2023-03-18T23:24:07.463Z,53.00
2023-03-18T23:26:36.825Z,53.30
2023-03-18T23:29:06.323Z,55.40
2023-03-18T23:31:34.651Z,56.80
2023-03-18T23:34:03.905Z,53.40
2023-03-18T23:36:32.928Z,56.50
2023-03-18T23:39:01.397Z,53.60
2023-03-18T23:41:30.994Z,52.80
2023-03-18T23:44:03.701Z,54.50
2023-03-18T23:46:33.045Z,54.10
2023-03-18T23:49:01.560Z,55.90
2023-03-18T23:51:30.158Z,52.90
2023-03-18T23:53:58.419Z,52.50
2023-03-18T23:56:26.463Z,52.00
2023-03-18T23:58:55.079Z,53.20
